sensor_id;sensor_type;location;lat;lon;timestamp;temperature;humidity
56308;DHT22;42217;50.422;7.210;2022-08-19T00:01:16;19.60;84.00
56308;DHT22;42217;50.422;7.210;2022-08-19T00:03:42;19.60;84.00
56308;DHT22;42217;50.422;7.210;2022-08-19T00:06:08;19.60;84.70
56308;DHT22;42217;50.422;7.210;2022-08-19T00:08:34;19.60;85.50
56308;DHT22;42217;50.422;7.210;2022-08-19T00:11:00;19.50;87.80
56308;DHT22;42217;50.422;7.210;2022-08-19T00:13:25;19.40;89.50
56308;DHT22;42217;50.422;7.210;2022-08-19T00:15:55;19.40;90.40
56308;DHT22;42217;50.422;7.210;2022-08-19T00:18:20;19.40;90.30
56308;DHT22;42217;50.422;7.210;2022-08-19T00:20:46;19.40;90.20
56308;DHT22;42217;50.422;7.210;2022-08-19T00:23:12;19.40;90.00
56308;DHT22;42217;50.422;7.210;2022-08-19T00:25:38;19.40;90.50
56308;DHT22;42217;50.422;7.210;2022-08-19T00:28:04;19.40;90.30
56308;DHT22;42217;50.422;7.210;2022-08-19T00:30:30;19.30;91.00
56308;DHT22;42217;50.422;7.210;2022-08-19T00:32:56;19.30;91.80
56308;DHT22;42217;50.422;7.210;2022-08-19T00:35:22;19.30;91.50
56308;DHT22;42217;50.422;7.210;2022-08-19T00:37:49;19.30;91.70
56308;DHT22;42217;50.422;7.210;2022-08-19T00:40:17;19.30;92.00
56308;DHT22;42217;50.422;7.210;2022-08-19T00:42:43;19.20;92.60
56308;DHT22;42217;50.422;7.210;2022-08-19T00:45:20;19.20;92.80
56308;DHT22;42217;50.422;7.210;2022-08-19T00:47:46;19.20;93.10
56308;DHT22;42217;50.422;7.210;2022-08-19T00:50:15;19.10;93.50
56308;DHT22;42217;50.422;7.210;2022-08-19T00:52:45;19.10;94.10
56308;DHT22;42217;50.422;7.210;2022-08-19T00:55:18;19.00;94.20
56308;DHT22;42217;50.422;7.210;2022-08-19T00:57:48;19.00;94.50
56308;DHT22;42217;50.422;7.210;2022-08-19T01:00:18;19.00;95.00
56308;DHT22;42217;50.422;7.210;2022-08-19T01:02:44;19.00;95.00
56308;DHT22;42217;50.422;7.210;2022-08-19T01:05:14;19.00;95.00
56308;DHT22;42217;50.422;7.210;2022-08-19T01:07:41;19.00;95.10
56308;DHT22;42217;50.422;7.210;2022-08-19T01:10:11;18.90;95.70
56308;DHT22;42217;50.422;7.210;2022-08-19T01:12:38;18.90;95.90
56308;DHT22;42217;50.422;7.210;2022-08-19T01:15:06;18.80;96.50
56308;DHT22;42217;50.422;7.210;2022-08-19T01:17:33;18.80;96.70
56308;DHT22;42217;50.422;7.210;2022-08-19T01:20:00;18.70;97.00
56308;DHT22;42217;50.422;7.210;2022-08-19T01:22:41;18.70;97.20
56308;DHT22;42217;50.422;7.210;2022-08-19T01:25:08;18.70;97.60
56308;DHT22;42217;50.422;7.210;2022-08-19T01:27:39;18.60;98.10
56308;DHT22;42217;50.422;7.210;2022-08-19T01:30:06;18.50;98.60
56308;DHT22;42217;50.422;7.210;2022-08-19T01:32:32;18.30;99.40
56308;DHT22;42217;50.422;7.210;2022-08-19T01:34:58;18.20;99.90
56308;DHT22;42217;50.422;7.210;2022-08-19T01:37:27;18.00;99.90
56308;DHT22;42217;50.422;7.210;2022-08-19T01:39:53;17.80;99.90
56308;DHT22;42217;50.422;7.210;2022-08-19T01:42:18;17.50;99.90
56308;DHT22;42217;50.422;7.210;2022-08-19T01:44:45;17.30;99.90
56308;DHT22;42217;50.422;7.210;2022-08-19T01:47:11;17.30;99.90
56308;DHT22;42217;50.422;7.210;2022-08-19T01:49:37;17.20;99.90
56308;DHT22;42217;50.422;7.210;2022-08-19T01:52:04;17.10;99.90
56308;DHT22;42217;50.422;7.210;2022-08-19T01:54:30;16.90;99.90
56308;DHT22;42217;50.422;7.210;2022-08-19T01:57:09;16.70;99.90
56308;DHT22;42217;50.422;7.210;2022-08-19T01:59:36;16.50;99.90
56308;DHT22;42217;50.422;7.210;2022-08-19T02:02:04;16.40;99.90
56308;DHT22;42217;50.422;7.210;2022-08-19T02:04:32;16.40;99.90
56308;DHT22;42217;50.422;7.210;2022-08-19T02:06:59;16.50;99.90
56308;DHT22;42217;50.422;7.210;2022-08-19T02:09:24;16.60;99.90
56308;DHT22;42217;50.422;7.210;2022-08-19T02:11:50;16.70;99.90
56308;DHT22;42217;50.422;7.210;2022-08-19T02:14:16;16.90;99.90
56308;DHT22;42217;50.422;7.210;2022-08-19T02:16:42;16.90;99.90
56308;DHT22;42217;50.422;7.210;2022-08-19T02:19:07;16.90;99.90
56308;DHT22;42217;50.422;7.210;2022-08-19T02:21:34;16.70;99.90
56308;DHT22;42217;50.422;7.210;2022-08-19T02:23:59;16.60;99.90
56308;DHT22;42217;50.422;7.210;2022-08-19T02:26:26;16.50;99.90
56308;DHT22;42217;50.422;7.210;2022-08-19T02:28:53;16.40;99.90
56308;DHT22;42217;50.422;7.210;2022-08-19T02:31:21;16.30;99.90
56308;DHT22;42217;50.422;7.210;2022-08-19T02:33:48;16.40;99.90
56308;DHT22;42217;50.422;7.210;2022-08-19T02:36:16;16.70;99.90
56308;DHT22;42217;50.422;7.210;2022-08-19T02:38:43;17.00;99.90
56308;DHT22;42217;50.422;7.210;2022-08-19T02:41:21;17.20;99.90
56308;DHT22;42217;50.422;7.210;2022-08-19T02:43:47;17.40;99.90
56308;DHT22;42217;50.422;7.210;2022-08-19T02:46:26;17.50;99.90
56308;DHT22;42217;50.422;7.210;2022-08-19T02:48:54;17.40;99.90
56308;DHT22;42217;50.422;7.210;2022-08-19T02:51:26;17.60;99.90
56308;DHT22;42217;50.422;7.210;2022-08-19T02:53:52;17.70;99.90
56308;DHT22;42217;50.422;7.210;2022-08-19T02:56:19;17.80;99.90
56308;DHT22;42217;50.422;7.210;2022-08-19T02:58:46;17.70;99.90
56308;DHT22;42217;50.422;7.210;2022-08-19T03:01:29;17.50;99.90
56308;DHT22;42217;50.422;7.210;2022-08-19T03:03:59;17.20;99.90
56308;DHT22;42217;50.422;7.210;2022-08-19T03:06:26;16.90;99.90
56308;DHT22;42217;50.422;7.210;2022-08-19T03:08:52;16.60;99.90
56308;DHT22;42217;50.422;7.210;2022-08-19T03:11:29;16.50;99.90
56308;DHT22;42217;50.422;7.210;2022-08-19T03:13:55;16.50;99.90
56308;DHT22;42217;50.422;7.210;2022-08-19T03:16:23;16.80;99.90
56308;DHT22;42217;50.422;7.210;2022-08-19T03:18:50;17.10;99.90
56308;DHT22;42217;50.422;7.210;2022-08-19T03:21:23;17.50;99.90
56308;DHT22;42217;50.422;7.210;2022-08-19T03:23:56;17.70;99.90
56308;DHT22;42217;50.422;7.210;2022-08-19T03:26:22;17.90;99.90
56308;DHT22;42217;50.422;7.210;2022-08-19T03:28:48;18.00;99.90
56308;DHT22;42217;50.422;7.210;2022-08-19T03:31:17;18.10;99.90
56308;DHT22;42217;50.422;7.210;2022-08-19T03:33:44;18.10;99.90
56308;DHT22;42217;50.422;7.210;2022-08-19T03:36:15;18.10;99.90
56308;DHT22;42217;50.422;7.210;2022-08-19T03:38:47;18.10;99.90
56308;DHT22;42217;50.422;7.210;2022-08-19T03:41:16;18.10;99.90
56308;DHT22;42217;50.422;7.210;2022-08-19T03:43:43;18.10;99.90
56308;DHT22;42217;50.422;7.210;2022-08-19T03:46:11;18.20;99.90
56308;DHT22;42217;50.422;7.210;2022-08-19T03:48:38;18.20;99.90
56308;DHT22;42217;50.422;7.210;2022-08-19T03:51:06;18.10;99.90
56308;DHT22;42217;50.422;7.210;2022-08-19T03:53:33;18.10;99.90
56308;DHT22;42217;50.422;7.210;2022-08-19T03:56:00;18.00;99.90
56308;DHT22;42217;50.422;7.210;2022-08-19T03:58:27;18.00;99.90
56308;DHT22;42217;50.422;7.210;2022-08-19T04:00:55;17.90;99.90
56308;DHT22;42217;50.422;7.210;2022-08-19T04:03:23;17.80;99.90
56308;DHT22;42217;50.422;7.210;2022-08-19T04:05:49;17.80;99.90
56308;DHT22;42217;50.422;7.210;2022-08-19T04:08:16;17.80;99.90
56308;DHT22;42217;50.422;7.210;2022-08-19T04:10:47;17.70;99.90
56308;DHT22;42217;50.422;7.210;2022-08-19T04:13:14;17.60;99.90
56308;DHT22;42217;50.422;7.210;2022-08-19T04:15:42;17.60;99.90
56308;DHT22;42217;50.422;7.210;2022-08-19T04:18:09;17.60;99.90
56308;DHT22;42217;50.422;7.210;2022-08-19T04:20:46;17.50;99.90
56308;DHT22;42217;50.422;7.210;2022-08-19T04:23:14;17.40;99.90
56308;DHT22;42217;50.422;7.210;2022-08-19T04:25:41;17.20;99.90
56308;DHT22;42217;50.422;7.210;2022-08-19T04:28:10;17.00;99.90
56308;DHT22;42217;50.422;7.210;2022-08-19T04:30:44;16.90;99.90
56308;DHT22;42217;50.422;7.210;2022-08-19T04:33:13;16.70;99.90
56308;DHT22;42217;50.422;7.210;2022-08-19T04:35:45;16.50;99.90
56308;DHT22;42217;50.422;7.210;2022-08-19T04:38:13;16.20;99.90
56308;DHT22;42217;50.422;7.210;2022-08-19T04:40:41;16.00;99.90
56308;DHT22;42217;50.422;7.210;2022-08-19T04:43:25;15.80;99.90
56308;DHT22;42217;50.422;7.210;2022-08-19T04:45:51;15.70;99.90
56308;DHT22;42217;50.422;7.210;2022-08-19T04:48:17;15.60;99.90
56308;DHT22;42217;50.422;7.210;2022-08-19T04:50:45;15.60;99.90
56308;DHT22;42217;50.422;7.210;2022-08-19T04:53:10;15.60;99.90
56308;DHT22;42217;50.422;7.210;2022-08-19T04:55:41;15.60;99.90
56308;DHT22;42217;50.422;7.210;2022-08-19T04:58:07;15.60;99.90
56308;DHT22;42217;50.422;7.210;2022-08-19T05:00:33;15.70;99.90
56308;DHT22;42217;50.422;7.210;2022-08-19T05:02:58;15.70;99.90
56308;DHT22;42217;50.422;7.210;2022-08-19T05:05:24;15.80;99.90
56308;DHT22;42217;50.422;7.210;2022-08-19T05:07:49;15.80;99.90
56308;DHT22;42217;50.422;7.210;2022-08-19T05:10:15;15.90;99.90
56308;DHT22;42217;50.422;7.210;2022-08-19T05:12:41;16.00;99.90
56308;DHT22;42217;50.422;7.210;2022-08-19T05:15:07;16.10;99.90
56308;DHT22;42217;50.422;7.210;2022-08-19T05:17:36;16.30;99.90
56308;DHT22;42217;50.422;7.210;2022-08-19T05:20:05;16.40;99.90
56308;DHT22;42217;50.422;7.210;2022-08-19T05:22:49;16.60;99.90
56308;DHT22;42217;50.422;7.210;2022-08-19T05:25:19;16.80;99.90
56308;DHT22;42217;50.422;7.210;2022-08-19T05:27:46;17.00;99.90
56308;DHT22;42217;50.422;7.210;2022-08-19T05:30:12;17.40;99.90
56308;DHT22;42217;50.422;7.210;2022-08-19T05:32:38;17.80;99.90
56308;DHT22;42217;50.422;7.210;2022-08-19T05:35:05;18.30;99.90
56308;DHT22;42217;50.422;7.210;2022-08-19T05:37:31;18.60;99.90
56308;DHT22;42217;50.422;7.210;2022-08-19T05:39:56;18.90;99.90
56308;DHT22;42217;50.422;7.210;2022-08-19T05:42:22;19.10;99.90
56308;DHT22;42217;50.422;7.210;2022-08-19T05:44:49;19.30;99.80
56308;DHT22;42217;50.422;7.210;2022-08-19T05:47:16;19.50;99.10
56308;DHT22;42217;50.422;7.210;2022-08-19T05:49:42;19.60;98.20
56308;DHT22;42217;50.422;7.210;2022-08-19T05:52:13;19.70;98.40
56308;DHT22;42217;50.422;7.210;2022-08-19T05:54:41;19.70;98.10
56308;DHT22;42217;50.422;7.210;2022-08-19T05:57:07;19.80;97.70
56308;DHT22;42217;50.422;7.210;2022-08-19T05:59:33;19.90;96.90
56308;DHT22;42217;50.422;7.210;2022-08-19T06:02:01;20.00;96.70
56308;DHT22;42217;50.422;7.210;2022-08-19T06:04:27;20.00;96.70
56308;DHT22;42217;50.422;7.210;2022-08-19T06:06:54;20.10;96.70
56308;DHT22;42217;50.422;7.210;2022-08-19T06:09:22;20.10;96.30
56308;DHT22;42217;50.422;7.210;2022-08-19T06:11:50;20.20;96.20
56308;DHT22;42217;50.422;7.210;2022-08-19T06:14:21;20.40;95.40
56308;DHT22;42217;50.422;7.210;2022-08-19T06:16:47;20.30;95.60
56308;DHT22;42217;50.422;7.210;2022-08-19T06:19:15;20.20;95.80
56308;DHT22;42217;50.422;7.210;2022-08-19T06:21:43;20.10;96.20
56308;DHT22;42217;50.422;7.210;2022-08-19T06:24:11;20.10;96.70
56308;DHT22;42217;50.422;7.210;2022-08-19T06:26:40;20.10;96.00
56308;DHT22;42217;50.422;7.210;2022-08-19T06:29:08;20.20;94.80
56308;DHT22;42217;50.422;7.210;2022-08-19T06:31:35;20.20;94.50
56308;DHT22;42217;50.422;7.210;2022-08-19T06:34:04;20.20;93.20
56308;DHT22;42217;50.422;7.210;2022-08-19T06:36:33;20.10;94.20
56308;DHT22;42217;50.422;7.210;2022-08-19T06:39:12;20.10;94.20
56308;DHT22;42217;50.422;7.210;2022-08-19T06:41:42;20.10;94.00
56308;DHT22;42217;50.422;7.210;2022-08-19T06:44:08;20.10;94.20
56308;DHT22;42217;50.422;7.210;2022-08-19T06:46:36;20.10;94.60
56308;DHT22;42217;50.422;7.210;2022-08-19T06:49:02;20.10;94.70
56308;DHT22;42217;50.422;7.210;2022-08-19T06:51:28;20.20;94.30
56308;DHT22;42217;50.422;7.210;2022-08-19T06:53:55;20.20;94.60
56308;DHT22;42217;50.422;7.210;2022-08-19T06:56:27;20.30;93.70
56308;DHT22;42217;50.422;7.210;2022-08-19T06:59:00;20.20;93.80
56308;DHT22;42217;50.422;7.210;2022-08-19T07:01:26;20.20;94.30
56308;DHT22;42217;50.422;7.210;2022-08-19T07:03:52;20.20;94.60
56308;DHT22;42217;50.422;7.210;2022-08-19T07:06:19;20.40;92.40
56308;DHT22;42217;50.422;7.210;2022-08-19T07:08:47;20.60;91.90
56308;DHT22;42217;50.422;7.210;2022-08-19T07:11:16;20.90;89.30
56308;DHT22;42217;50.422;7.210;2022-08-19T07:13:43;21.20;85.60
56308;DHT22;42217;50.422;7.210;2022-08-19T07:16:13;21.30;78.90
56308;DHT22;42217;50.422;7.210;2022-08-19T07:18:39;21.30;78.00
56308;DHT22;42217;50.422;7.210;2022-08-19T07:21:11;21.50;76.90
56308;DHT22;42217;50.422;7.210;2022-08-19T07:23:37;21.90;67.70
56308;DHT22;42217;50.422;7.210;2022-08-19T07:26:12;22.00;67.20
56308;DHT22;42217;50.422;7.210;2022-08-19T07:28:38;22.10;64.60
56308;DHT22;42217;50.422;7.210;2022-08-19T07:31:09;22.20;61.20
56308;DHT22;42217;50.422;7.210;2022-08-19T07:33:35;22.30;61.30
56308;DHT22;42217;50.422;7.210;2022-08-19T07:36:05;22.60;55.40
56308;DHT22;42217;50.422;7.210;2022-08-19T07:38:33;22.80;40.80
56308;DHT22;42217;50.422;7.210;2022-08-19T07:40:59;22.50;49.50
56308;DHT22;42217;50.422;7.210;2022-08-19T07:43:25;22.50;38.80
56308;DHT22;42217;50.422;7.210;2022-08-19T07:45:53;22.50;42.00
56308;DHT22;42217;50.422;7.210;2022-08-19T07:48:24;22.60;39.30
56308;DHT22;42217;50.422;7.210;2022-08-19T07:50:59;22.70;41.20
56308;DHT22;42217;50.422;7.210;2022-08-19T07:53:28;23.00;23.30
56308;DHT22;42217;50.422;7.210;2022-08-19T07:55:54;23.00;16.80
56308;DHT22;42217;50.422;7.210;2022-08-19T07:58:21;22.90;7.10
56308;DHT22;42217;50.422;7.210;2022-08-19T08:00:49;22.80;6.90
56308;DHT22;42217;50.422;7.210;2022-08-19T08:03:18;22.80;9.10
56308;DHT22;42217;50.422;7.210;2022-08-19T08:05:45;22.70;16.10
56308;DHT22;42217;50.422;7.210;2022-08-19T08:08:30;22.80;18.00
56308;DHT22;42217;50.422;7.210;2022-08-19T08:11:05;23.00;13.50
56308;DHT22;42217;50.422;7.210;2022-08-19T08:13:32;23.10;3.70
56308;DHT22;42217;50.422;7.210;2022-08-19T08:16:01;23.10;1.80
56308;DHT22;42217;50.422;7.210;2022-08-19T08:18:27;23.20;1.00
56308;DHT22;42217;50.422;7.210;2022-08-19T08:20:54;23.40;1.00
56308;DHT22;42217;50.422;7.210;2022-08-19T08:23:20;23.50;1.00
56308;DHT22;42217;50.422;7.210;2022-08-19T08:25:55;23.60;1.00
56308;DHT22;42217;50.422;7.210;2022-08-19T08:28:21;23.70;1.00
56308;DHT22;42217;50.422;7.210;2022-08-19T08:30:49;23.50;1.00
56308;DHT22;42217;50.422;7.210;2022-08-19T08:33:23;23.30;1.00
56308;DHT22;42217;50.422;7.210;2022-08-19T08:35:49;23.20;1.00
56308;DHT22;42217;50.422;7.210;2022-08-19T08:38:15;23.10;1.00
56308;DHT22;42217;50.422;7.210;2022-08-19T08:43:34;23.40;1.00
56308;DHT22;42217;50.422;7.210;2022-08-19T08:46:06;23.60;1.00
56308;DHT22;42217;50.422;7.210;2022-08-19T08:51:16;23.20;1.00
56308;DHT22;42217;50.422;7.210;2022-08-19T08:53:45;23.00;1.00
56308;DHT22;42217;50.422;7.210;2022-08-19T08:56:12;23.20;1.00
56308;DHT22;42217;50.422;7.210;2022-08-19T08:59:04;23.30;1.00
56308;DHT22;42217;50.422;7.210;2022-08-19T09:01:33;23.20;1.00
56308;DHT22;42217;50.422;7.210;2022-08-19T09:03:59;23.30;1.00
56308;DHT22;42217;50.422;7.210;2022-08-19T09:06:38;23.40;1.00
56308;DHT22;42217;50.422;7.210;2022-08-19T09:12:10;23.40;1.00
56308;DHT22;42217;50.422;7.210;2022-08-19T09:14:49;23.40;1.00
56308;DHT22;42217;50.422;7.210;2022-08-19T09:17:17;23.20;1.00
56308;DHT22;42217;50.422;7.210;2022-08-19T09:19:55;23.40;1.00
56308;DHT22;42217;50.422;7.210;2022-08-19T09:22:21;23.80;1.00
56308;DHT22;42217;50.422;7.210;2022-08-19T09:24:51;24.30;1.00
56308;DHT22;42217;50.422;7.210;2022-08-19T09:27:21;24.50;1.00
56308;DHT22;42217;50.422;7.210;2022-08-19T09:29:49;24.60;1.00
56308;DHT22;42217;50.422;7.210;2022-08-19T09:32:16;25.00;1.00
56308;DHT22;42217;50.422;7.210;2022-08-19T09:34:42;25.20;1.00
56308;DHT22;42217;50.422;7.210;2022-08-19T09:37:09;25.30;1.00
56308;DHT22;42217;50.422;7.210;2022-08-19T09:39:34;25.10;1.00
56308;DHT22;42217;50.422;7.210;2022-08-19T09:42:00;25.30;1.00
56308;DHT22;42217;50.422;7.210;2022-08-19T09:44:25;25.10;1.00
56308;DHT22;42217;50.422;7.210;2022-08-19T09:46:51;24.90;1.00
56308;DHT22;42217;50.422;7.210;2022-08-19T09:49:18;24.10;1.00
56308;DHT22;42217;50.422;7.210;2022-08-19T09:51:45;24.10;1.00
56308;DHT22;42217;50.422;7.210;2022-08-19T09:54:14;24.10;1.00
56308;DHT22;42217;50.422;7.210;2022-08-19T09:56:40;24.00;1.00
56308;DHT22;42217;50.422;7.210;2022-08-19T09:59:06;23.90;1.00
56308;DHT22;42217;50.422;7.210;2022-08-19T10:01:32;23.60;1.00
56308;DHT22;42217;50.422;7.210;2022-08-19T10:03:59;23.60;1.00
56308;DHT22;42217;50.422;7.210;2022-08-19T10:06:27;23.90;1.00
56308;DHT22;42217;50.422;7.210;2022-08-19T10:08:55;24.30;1.00
56308;DHT22;42217;50.422;7.210;2022-08-19T10:11:21;24.80;1.00
56308;DHT22;42217;50.422;7.210;2022-08-19T10:13:47;25.00;1.00
56308;DHT22;42217;50.422;7.210;2022-08-19T10:16:17;24.80;1.00
56308;DHT22;42217;50.422;7.210;2022-08-19T10:18:45;24.60;1.00
56308;DHT22;42217;50.422;7.210;2022-08-19T10:21:23;24.40;1.00
56308;DHT22;42217;50.422;7.210;2022-08-19T10:23:52;24.70;1.00
56308;DHT22;42217;50.422;7.210;2022-08-19T10:26:26;24.70;1.00
56308;DHT22;42217;50.422;7.210;2022-08-19T10:28:53;24.50;1.00
56308;DHT22;42217;50.422;7.210;2022-08-19T10:31:22;24.60;1.00
56308;DHT22;42217;50.422;7.210;2022-08-19T10:33:49;24.60;1.00
56308;DHT22;42217;50.422;7.210;2022-08-19T10:36:18;24.20;1.00
56308;DHT22;42217;50.422;7.210;2022-08-19T10:38:50;23.80;1.00
56308;DHT22;42217;50.422;7.210;2022-08-19T10:41:21;24.10;1.00
56308;DHT22;42217;50.422;7.210;2022-08-19T10:43:52;24.30;1.00
56308;DHT22;42217;50.422;7.210;2022-08-19T10:46:20;24.70;1.00
56308;DHT22;42217;50.422;7.210;2022-08-19T10:48:47;24.80;1.00
56308;DHT22;42217;50.422;7.210;2022-08-19T10:51:13;24.70;1.00
56308;DHT22;42217;50.422;7.210;2022-08-19T10:53:58;24.40;1.00
56308;DHT22;42217;50.422;7.210;2022-08-19T10:56:26;24.50;1.00
56308;DHT22;42217;50.422;7.210;2022-08-19T10:59:11;24.70;1.00
56308;DHT22;42217;50.422;7.210;2022-08-19T11:01:40;24.90;1.00
56308;DHT22;42217;50.422;7.210;2022-08-19T11:04:07;25.00;1.00
56308;DHT22;42217;50.422;7.210;2022-08-19T11:06:36;25.20;1.00
56308;DHT22;42217;50.422;7.210;2022-08-19T11:09:04;25.20;1.00
56308;DHT22;42217;50.422;7.210;2022-08-19T11:11:31;25.20;1.00
56308;DHT22;42217;50.422;7.210;2022-08-19T11:13:58;25.20;1.00
56308;DHT22;42217;50.422;7.210;2022-08-19T11:16:25;25.20;1.00
56308;DHT22;42217;50.422;7.210;2022-08-19T11:18:58;25.10;1.00
56308;DHT22;42217;50.422;7.210;2022-08-19T11:21:26;25.30;99.90
56308;DHT22;42217;50.422;7.210;2022-08-19T11:23:56;25.10;99.90
56308;DHT22;42217;50.422;7.210;2022-08-19T11:26:23;24.80;1.00
56308;DHT22;42217;50.422;7.210;2022-08-19T11:28:49;24.80;1.00
56308;DHT22;42217;50.422;7.210;2022-08-19T11:31:23;24.70;1.00
56308;DHT22;42217;50.422;7.210;2022-08-19T11:33:49;24.60;1.00
56308;DHT22;42217;50.422;7.210;2022-08-19T11:36:20;24.60;1.00
56308;DHT22;42217;50.422;7.210;2022-08-19T11:38:47;24.80;1.00
56308;DHT22;42217;50.422;7.210;2022-08-19T11:41:15;25.00;1.00
56308;DHT22;42217;50.422;7.210;2022-08-19T11:43:41;25.40;99.90
56308;DHT22;42217;50.422;7.210;2022-08-19T11:46:09;25.50;99.90
56308;DHT22;42217;50.422;7.210;2022-08-19T11:48:36;26.10;99.90
56308;DHT22;42217;50.422;7.210;2022-08-19T11:51:14;26.70;1.00
56308;DHT22;42217;50.422;7.210;2022-08-19T11:53:41;26.70;23.10
56308;DHT22;42217;50.422;7.210;2022-08-19T11:56:08;26.30;1.00
56308;DHT22;42217;50.422;7.210;2022-08-19T11:58:34;26.20;99.90
56308;DHT22;42217;50.422;7.210;2022-08-19T12:01:00;26.30;65.90
56308;DHT22;42217;50.422;7.210;2022-08-19T12:03:26;26.10;99.90
56308;DHT22;42217;50.422;7.210;2022-08-19T12:05:51;26.20;98.80
56308;DHT22;42217;50.422;7.210;2022-08-19T12:08:18;26.10;99.90
56308;DHT22;42217;50.422;7.210;2022-08-19T12:10:45;25.80;99.90
56308;DHT22;42217;50.422;7.210;2022-08-19T12:13:13;25.80;99.90
56308;DHT22;42217;50.422;7.210;2022-08-19T12:15:41;25.70;99.90
56308;DHT22;42217;50.422;7.210;2022-08-19T12:18:08;25.60;99.90
56308;DHT22;42217;50.422;7.210;2022-08-19T12:20:36;25.80;99.90
56308;DHT22;42217;50.422;7.210;2022-08-19T12:23:03;25.90;99.90
56308;DHT22;42217;50.422;7.210;2022-08-19T12:25:29;25.90;99.90
56308;DHT22;42217;50.422;7.210;2022-08-19T12:27:56;26.30;1.00
56308;DHT22;42217;50.422;7.210;2022-08-19T12:30:22;26.20;1.00
56308;DHT22;42217;50.422;7.210;2022-08-19T12:32:48;26.10;73.90
56308;DHT22;42217;50.422;7.210;2022-08-19T12:35:14;25.90;99.90
56308;DHT22;42217;50.422;7.210;2022-08-19T12:37:39;25.80;99.90
56308;DHT22;42217;50.422;7.210;2022-08-19T12:40:08;25.70;99.90
56308;DHT22;42217;50.422;7.210;2022-08-19T12:42:34;25.80;99.90
56308;DHT22;42217;50.422;7.210;2022-08-19T12:45:00;25.60;99.90
56308;DHT22;42217;50.422;7.210;2022-08-19T12:47:26;25.40;99.90
56308;DHT22;42217;50.422;7.210;2022-08-19T12:49:52;25.60;99.90
56308;DHT22;42217;50.422;7.210;2022-08-19T12:52:18;25.70;99.90
56308;DHT22;42217;50.422;7.210;2022-08-19T12:54:46;26.00;57.10
56308;DHT22;42217;50.422;7.210;2022-08-19T12:57:12;26.60;1.00
56308;DHT22;42217;50.422;7.210;2022-08-19T12:59:38;26.90;1.00
56308;DHT22;42217;50.422;7.210;2022-08-19T13:02:06;26.60;99.90
56308;DHT22;42217;50.422;7.210;2022-08-19T13:04:33;26.70;97.50
56308;DHT22;42217;50.422;7.210;2022-08-19T13:07:06;26.80;99.90
56308;DHT22;42217;50.422;7.210;2022-08-19T13:09:33;26.60;99.90
56308;DHT22;42217;50.422;7.210;2022-08-19T13:11:59;26.90;99.90
56308;DHT22;42217;50.422;7.210;2022-08-19T13:14:26;26.90;99.90
56308;DHT22;42217;50.422;7.210;2022-08-19T13:16:51;27.00;1.00
56308;DHT22;42217;50.422;7.210;2022-08-19T13:19:17;27.10;1.00
56308;DHT22;42217;50.422;7.210;2022-08-19T13:21:49;26.90;99.90
56308;DHT22;42217;50.422;7.210;2022-08-19T13:24:15;26.70;1.00
56308;DHT22;42217;50.422;7.210;2022-08-19T13:26:41;27.00;99.90
56308;DHT22;42217;50.422;7.210;2022-08-19T13:29:07;27.30;99.90
56308;DHT22;42217;50.422;7.210;2022-08-19T13:31:51;28.40;31.70
56308;DHT22;42217;50.422;7.210;2022-08-19T13:34:35;28.50;1.00
56308;DHT22;42217;50.422;7.210;2022-08-19T13:37:03;28.30;1.00
56308;DHT22;42217;50.422;7.210;2022-08-19T13:39:31;28.20;99.90
56308;DHT22;42217;50.422;7.210;2022-08-19T13:41:58;28.70;99.90
56308;DHT22;42217;50.422;7.210;2022-08-19T13:44:26;29.70;1.00
56308;DHT22;42217;50.422;7.210;2022-08-19T13:46:55;29.90;1.00
56308;DHT22;42217;50.422;7.210;2022-08-19T13:49:28;29.50;28.30
56308;DHT22;42217;50.422;7.210;2022-08-19T13:51:56;28.80;1.00
56308;DHT22;42217;50.422;7.210;2022-08-19T13:54:22;28.80;1.00
56308;DHT22;42217;50.422;7.210;2022-08-19T13:56:48;29.30;55.90
56308;DHT22;42217;50.422;7.210;2022-08-19T13:59:14;29.40;1.00
56308;DHT22;42217;50.422;7.210;2022-08-19T14:01:40;29.50;99.90
56308;DHT22;42217;50.422;7.210;2022-08-19T14:04:07;29.80;1.00
56308;DHT22;42217;50.422;7.210;2022-08-19T14:06:33;29.60;1.00
56308;DHT22;42217;50.422;7.210;2022-08-19T14:08:59;30.00;1.00
56308;DHT22;42217;50.422;7.210;2022-08-19T14:11:27;30.80;1.00
56308;DHT22;42217;50.422;7.210;2022-08-19T14:13:53;30.90;99.90
56308;DHT22;42217;50.422;7.210;2022-08-19T14:16:22;30.50;99.90
56308;DHT22;42217;50.422;7.210;2022-08-19T14:18:49;30.20;99.90
56308;DHT22;42217;50.422;7.210;2022-08-19T14:21:20;30.30;99.90
56308;DHT22;42217;50.422;7.210;2022-08-19T14:23:48;29.00;99.90
56308;DHT22;42217;50.422;7.210;2022-08-19T14:26:17;27.70;99.90
56308;DHT22;42217;50.422;7.210;2022-08-19T14:28:44;28.00;99.90
56308;DHT22;42217;50.422;7.210;2022-08-19T14:31:11;28.20;99.90
56308;DHT22;42217;50.422;7.210;2022-08-19T14:33:38;27.80;1.00
56308;DHT22;42217;50.422;7.210;2022-08-19T14:36:04;27.80;99.90
56308;DHT22;42217;50.422;7.210;2022-08-19T14:38:30;28.70;99.90
56308;DHT22;42217;50.422;7.210;2022-08-19T14:41:23;28.90;1.00
56308;DHT22;42217;50.422;7.210;2022-08-19T14:43:51;28.40;1.00
56308;DHT22;42217;50.422;7.210;2022-08-19T14:46:20;28.00;99.90
56308;DHT22;42217;50.422;7.210;2022-08-19T14:48:47;28.40;1.00
56308;DHT22;42217;50.422;7.210;2022-08-19T14:51:13;28.50;99.90
56308;DHT22;42217;50.422;7.210;2022-08-19T14:53:40;27.50;99.90
56308;DHT22;42217;50.422;7.210;2022-08-19T14:56:10;27.00;99.90
56308;DHT22;42217;50.422;7.210;2022-08-19T14:58:37;27.70;99.90
56308;DHT22;42217;50.422;7.210;2022-08-19T15:01:02;29.50;99.90
56308;DHT22;42217;50.422;7.210;2022-08-19T15:03:29;30.50;99.90
56308;DHT22;42217;50.422;7.210;2022-08-19T15:05:56;31.30;17.40
56308;DHT22;42217;50.422;7.210;2022-08-19T15:08:22;30.30;1.00
56308;DHT22;42217;50.422;7.210;2022-08-19T15:10:51;30.70;1.00
56308;DHT22;42217;50.422;7.210;2022-08-19T15:13:17;30.80;1.00
56308;DHT22;42217;50.422;7.210;2022-08-19T15:15:43;31.10;1.00
56308;DHT22;42217;50.422;7.210;2022-08-19T15:18:09;30.80;1.00
56308;DHT22;42217;50.422;7.210;2022-08-19T15:20:35;29.80;1.00
56308;DHT22;42217;50.422;7.210;2022-08-19T15:23:01;29.40;1.00
56308;DHT22;42217;50.422;7.210;2022-08-19T15:25:30;30.20;28.30
56308;DHT22;42217;50.422;7.210;2022-08-19T15:27:55;30.90;1.00
56308;DHT22;42217;50.422;7.210;2022-08-19T15:30:24;31.20;1.00
56308;DHT22;42217;50.422;7.210;2022-08-19T15:32:50;32.00;1.00
56308;DHT22;42217;50.422;7.210;2022-08-19T15:35:18;31.70;99.90
56308;DHT22;42217;50.422;7.210;2022-08-19T15:37:48;31.40;1.00
56308;DHT22;42217;50.422;7.210;2022-08-19T15:40:13;30.40;1.00
56308;DHT22;42217;50.422;7.210;2022-08-19T15:42:39;29.30;6.20
56308;DHT22;42217;50.422;7.210;2022-08-19T15:45:08;28.00;1.00
56308;DHT22;42217;50.422;7.210;2022-08-19T15:47:36;28.20;99.90
56308;DHT22;42217;50.422;7.210;2022-08-19T15:50:10;29.30;42.50